createdAt,value
2017-06-20T00:00:51.091Z,0
2017-06-20T00:02:00.058Z,0
2017-06-20T00:03:09.027Z,0
2017-06-20T00:04:18.290Z,0
2017-06-20T00:05:27.902Z,0
2017-06-20T00:06:37.280Z,0
2017-06-20T00:07:47.779Z,0
2017-06-20T00:08:57.362Z,0
2017-06-20T00:10:06.574Z,0
2017-06-20T00:11:15.543Z,0
2017-06-20T00:12:25.513Z,0
2017-06-20T00:13:34.474Z,0
2017-06-20T00:14:43.442Z,0
2017-06-20T00:15:52.946Z,0
2017-06-20T00:17:02.298Z,0
2017-06-20T00:18:11.785Z,0
2017-06-20T00:19:20.744Z,0
2017-06-20T00:20:30.043Z,0
2017-06-20T00:21:39.397Z,0
2017-06-20T00:22:48.944Z,0
2017-06-20T00:23:58.238Z,0
2017-06-20T00:25:07.295Z,0
2017-06-20T00:26:16.361Z,0
2017-06-20T00:27:25.715Z,0
2017-06-20T00:28:34.674Z,0
2017-06-20T00:29:45.052Z,0
2017-06-20T00:30:55.971Z,0
2017-06-20T00:32:05.633Z,0
2017-06-20T00:33:15.042Z,0
2017-06-20T00:34:24.121Z,0
2017-06-20T00:35:33.944Z,0
2017-06-20T00:36:42.949Z,0
2017-06-20T00:37:51.908Z,0
2017-06-20T00:39:01.852Z,0
2017-06-20T00:40:11.791Z,0
2017-06-20T00:41:21.076Z,0
2017-06-20T00:42:30.042Z,0
2017-06-20T00:43:39.006Z,0
2017-06-20T00:44:48.270Z,0
2017-06-20T00:45:57.263Z,0
2017-06-20T00:47:06.257Z,0
2017-06-20T00:48:15.216Z,0
2017-06-20T00:49:24.181Z,0
2017-06-20T00:50:33.406Z,0
2017-06-20T00:51:42.362Z,0
2017-06-20T00:52:51.320Z,0
2017-06-20T00:54:00.280Z,0
2017-06-20T00:55:09.242Z,0
2017-06-20T00:56:18.505Z,0
2017-06-20T00:57:27.463Z,0
2017-06-20T00:58:36.425Z,0
2017-06-20T00:59:45.388Z,0
2017-06-20T01:00:54.355Z,0
2017-06-20T01:02:03.568Z,0
2017-06-20T01:03:12.621Z,0
2017-06-20T01:04:21.581Z,0
2017-06-20T01:05:30.543Z,0
2017-06-20T01:06:39.506Z,0
2017-06-20T01:07:48.853Z,0
2017-06-20T01:08:57.812Z,0
2017-06-20T01:10:06.859Z,0
2017-06-20T01:11:15.820Z,0
2017-06-20T01:12:24.780Z,0
2017-06-20T01:13:33.990Z,0
2017-06-20T01:14:43.040Z,0
2017-06-20T01:15:52.001Z,0
2017-06-20T01:17:00.961Z,0
2017-06-20T01:18:09.924Z,0
2017-06-20T01:19:19.135Z,0
2017-06-20T01:20:28.097Z,0
2017-06-20T01:21:37.062Z,0
2017-06-20T01:22:46.059Z,0
2017-06-20T01:23:55.023Z,0
2017-06-20T01:25:04.286Z,0
2017-06-20T01:26:13.242Z,0
2017-06-20T01:27:22.205Z,0
2017-06-20T01:28:31.160Z,0
2017-06-20T01:29:40.123Z,0
2017-06-20T01:30:49.340Z,0
2017-06-20T01:31:58.300Z,0
2017-06-20T01:33:07.259Z,0
2017-06-20T01:34:16.216Z,0
2017-06-20T01:35:25.176Z,0
2017-06-20T01:36:34.422Z,0
2017-06-20T01:37:43.381Z,0
2017-06-20T01:38:52.341Z,0
2017-06-20T01:40:01.302Z,0
2017-06-20T01:41:10.277Z,0
2017-06-20T01:42:19.858Z,0
2017-06-20T01:43:28.820Z,0
2017-06-20T01:44:37.776Z,0
2017-06-20T01:45:46.736Z,0
2017-06-20T01:46:55.702Z,0
2017-06-20T01:48:04.965Z,0
2017-06-20T01:49:13.927Z,0
2017-06-20T01:50:22.981Z,0
2017-06-20T01:51:31.941Z,0
2017-06-20T01:52:40.901Z,0
2017-06-20T01:53:50.158Z,0
2017-06-20T01:54:59.119Z,0
2017-06-20T01:56:08.089Z,0
2017-06-20T01:57:17.052Z,0
2017-06-20T01:58:26.334Z,0
2017-06-20T01:59:35.546Z,0
2017-06-20T02:00:44.917Z,0
2017-06-20T02:01:53.877Z,0
2017-06-20T02:03:02.833Z,0
2017-06-20T02:04:11.881Z,0
2017-06-20T02:05:21.463Z,0
2017-06-20T02:06:30.424Z,0
2017-06-20T02:07:39.383Z,0
2017-06-20T02:08:48.341Z,0
2017-06-20T02:09:57.307Z,0
2017-06-20T02:11:06.894Z,0
2017-06-20T02:12:15.860Z,0
2017-06-20T02:13:24.821Z,0
2017-06-20T02:14:33.784Z,0
2017-06-20T02:15:42.747Z,0
2017-06-20T02:16:52.008Z,0
2017-06-20T02:18:00.966Z,0
2017-06-20T02:19:09.929Z,0
2017-06-20T02:20:18.888Z,0
2017-06-20T02:21:27.846Z,0
2017-06-20T02:22:37.053Z,0
2017-06-20T02:23:46.017Z,0
2017-06-20T02:24:54.986Z,0
2017-06-20T02:26:03.950Z,0
2017-06-20T02:27:12.911Z,0
2017-06-20T02:28:22.119Z,0
2017-06-20T02:29:31.081Z,0
2017-06-20T02:30:40.048Z,0
2017-06-20T02:31:49.011Z,0
2017-06-20T02:32:57.973Z,0
2017-06-20T02:34:07.184Z,0
2017-06-20T02:35:16.147Z,0
2017-06-20T02:36:25.110Z,0
2017-06-20T02:37:34.071Z,0
2017-06-20T02:38:43.029Z,0
2017-06-20T02:39:52.296Z,0
2017-06-20T02:41:01.261Z,0
2017-06-20T02:42:10.230Z,0
2017-06-20T02:43:19.198Z,0
2017-06-20T02:44:28.158Z,0
2017-06-20T02:45:37.415Z,0
2017-06-20T02:46:46.379Z,0
2017-06-20T02:47:55.665Z,0
2017-06-20T02:49:04.633Z,0
2017-06-20T02:50:14.242Z,0
2017-06-20T02:51:23.502Z,0
2017-06-20T02:52:32.468Z,0
2017-06-20T02:53:41.427Z,0
2017-06-20T02:54:50.387Z,0
2017-06-20T02:55:59.351Z,0
2017-06-20T02:57:08.562Z,0
2017-06-20T02:58:17.520Z,0
2017-06-20T02:59:26.484Z,0
2017-06-20T03:00:35.446Z,0
2017-06-20T03:01:44.407Z,0
2017-06-20T03:02:53.622Z,0
2017-06-20T03:04:02.588Z,0
2017-06-20T03:05:11.546Z,0
2017-06-20T03:06:20.506Z,0
2017-06-20T03:07:29.470Z,0
2017-06-20T03:08:38.680Z,0
2017-06-20T03:09:47.642Z,0
2017-06-20T03:10:56.598Z,0
2017-06-20T03:12:05.556Z,0
2017-06-20T03:13:14.518Z,0
2017-06-20T03:14:23.814Z,0
2017-06-20T03:15:32.781Z,0
2017-06-20T03:16:41.740Z,0
2017-06-20T03:17:50.701Z,0
2017-06-20T03:18:59.985Z,0
2017-06-20T03:20:09.317Z,5
2017-06-20T03:21:18.603Z,5
2017-06-20T03:22:27.570Z,5
2017-06-20T03:23:36.541Z,5
2017-06-20T03:24:45.855Z,5
2017-06-20T03:25:55.075Z,5
2017-06-20T03:27:04.362Z,5
2017-06-20T03:28:13.320Z,5
2017-06-20T03:29:22.278Z,5
2017-06-20T03:30:31.236Z,5
2017-06-20T03:31:40.446Z,5
2017-06-20T03:32:49.416Z,5
2017-06-20T03:33:58.376Z,5
2017-06-20T03:35:07.336Z,5
2017-06-20T03:36:16.385Z,5
2017-06-20T03:37:25.685Z,5
2017-06-20T03:38:34.641Z,5
2017-06-20T03:39:43.605Z,5
2017-06-20T03:40:52.562Z,5
2017-06-20T03:42:01.523Z,5
2017-06-20T03:43:10.789Z,5
2017-06-20T03:44:19.755Z,5
2017-06-20T03:45:28.719Z,5
2017-06-20T03:46:37.675Z,5
2017-06-20T03:47:46.638Z,5
2017-06-20T03:48:55.896Z,5
2017-06-20T03:50:04.856Z,5
2017-06-20T03:51:13.815Z,10
2017-06-20T03:52:23.102Z,10
2017-06-20T03:53:32.059Z,10
2017-06-20T03:54:41.273Z,10
2017-06-20T03:55:50.234Z,10
2017-06-20T03:56:59.193Z,10
2017-06-20T03:58:08.151Z,10
2017-06-20T03:59:17.201Z,10
2017-06-20T04:00:26.462Z,10
2017-06-20T04:01:35.418Z,10
2017-06-20T04:02:44.378Z,10
2017-06-20T04:03:53.334Z,10
2017-06-20T04:05:02.290Z,10
2017-06-20T04:06:11.495Z,10
2017-06-20T04:07:20.453Z,10
2017-06-20T04:08:29.413Z,10
2017-06-20T04:09:38.373Z,10
2017-06-20T04:10:47.333Z,10
2017-06-20T04:11:56.594Z,10
2017-06-20T04:13:05.555Z,10
2017-06-20T04:14:14.518Z,10
2017-06-20T04:15:23.481Z,15
2017-06-20T04:16:32.528Z,15
2017-06-20T04:17:41.789Z,15
2017-06-20T04:18:51.077Z,15
2017-06-20T04:20:00.033Z,15
2017-06-20T04:21:08.992Z,15
2017-06-20T04:22:17.958Z,15
2017-06-20T04:23:27.218Z,15
2017-06-20T04:24:36.504Z,15
2017-06-20T04:25:45.463Z,20
2017-06-20T04:26:54.424Z,20
2017-06-20T04:28:03.382Z,20
2017-06-20T04:29:12.650Z,20
2017-06-20T04:30:21.619Z,20
2017-06-20T04:31:30.584Z,20
2017-06-20T04:32:39.544Z,20
2017-06-20T04:33:48.509Z,20
2017-06-20T04:34:57.865Z,25
2017-06-20T04:36:06.825Z,25
2017-06-20T04:37:15.787Z,25
2017-06-20T04:38:24.753Z,25
2017-06-20T04:39:33.711Z,25
2017-06-20T04:40:42.978Z,25
2017-06-20T04:41:51.943Z,25
2017-06-20T04:43:00.913Z,25
2017-06-20T04:44:09.878Z,25
2017-06-20T04:45:18.870Z,20
2017-06-20T04:46:28.134Z,20
2017-06-20T04:47:37.097Z,25
2017-06-20T04:48:46.056Z,25
2017-06-20T04:49:55.020Z,20
2017-06-20T04:51:03.985Z,20
2017-06-20T04:52:13.250Z,20
2017-06-20T04:53:22.212Z,20
2017-06-20T04:54:31.175Z,20
2017-06-20T04:55:40.137Z,20
2017-06-20T04:56:49.106Z,20
2017-06-20T04:57:58.318Z,20
2017-06-20T04:59:07.283Z,20
2017-06-20T05:00:16.246Z,20
2017-06-20T05:01:25.211Z,20
2017-06-20T05:02:34.179Z,25
2017-06-20T05:03:43.388Z,25
2017-06-20T05:04:52.351Z,25
2017-06-20T05:06:01.321Z,25
2017-06-20T05:07:10.283Z,25
2017-06-20T05:08:19.245Z,25
2017-06-20T05:09:28.487Z,25
2017-06-20T05:10:37.477Z,30
2017-06-20T05:11:46.439Z,30
2017-06-20T05:12:55.403Z,30
2017-06-20T05:14:04.367Z,35
2017-06-20T05:15:13.574Z,35
2017-06-20T05:16:22.538Z,40
2017-06-20T05:17:31.499Z,40
2017-06-20T05:18:40.462Z,40
2017-06-20T05:19:49.422Z,40
2017-06-20T05:20:58.634Z,40
2017-06-20T05:22:07.594Z,40
2017-06-20T05:23:16.556Z,40
2017-06-20T05:24:25.516Z,45
2017-06-20T05:25:34.482Z,45
2017-06-20T05:26:43.866Z,45
2017-06-20T05:27:52.826Z,45
2017-06-20T05:29:01.790Z,45
2017-06-20T05:30:10.756Z,45
2017-06-20T05:31:19.715Z,45
2017-06-20T05:32:28.978Z,45
2017-06-20T05:33:37.934Z,45
2017-06-20T05:34:46.895Z,45
2017-06-20T05:35:55.861Z,45
2017-06-20T05:37:04.824Z,40
2017-06-20T05:38:14.083Z,45
2017-06-20T05:39:23.043Z,45
2017-06-20T05:40:32.007Z,45
2017-06-20T05:41:40.964Z,45
2017-06-20T05:42:49.921Z,45
2017-06-20T05:43:59.130Z,45
2017-06-20T05:45:08.096Z,45
2017-06-20T05:46:17.063Z,45
2017-06-20T05:47:26.025Z,45
2017-06-20T05:48:34.982Z,45
2017-06-20T05:49:44.197Z,45
2017-06-20T05:50:53.159Z,45
2017-06-20T05:52:02.120Z,45
2017-06-20T05:53:11.083Z,45
2017-06-20T05:54:20.043Z,55
2017-06-20T05:55:29.250Z,55
2017-06-20T05:56:38.212Z,50
2017-06-20T05:57:47.172Z,50
2017-06-20T05:58:56.132Z,50
2017-06-20T06:00:05.180Z,50
2017-06-20T06:01:14.459Z,50
2017-06-20T06:02:23.419Z,50
2017-06-20T06:03:32.947Z,50
2017-06-20T06:04:41.912Z,55
2017-06-20T06:05:50.876Z,55
2017-06-20T06:07:00.156Z,50
2017-06-20T06:08:09.221Z,50
2017-06-20T06:09:18.183Z,50
2017-06-20T06:10:27.170Z,55
2017-06-20T06:11:36.133Z,50
2017-06-20T06:12:45.395Z,50
2017-06-20T06:13:54.427Z,50
2017-06-20T06:15:03.388Z,50
2017-06-20T06:16:12.345Z,45
2017-06-20T06:17:21.309Z,50
2017-06-20T06:18:30.566Z,45
2017-06-20T06:19:39.614Z,45
2017-06-20T06:20:48.574Z,60
2017-06-20T06:21:57.534Z,90
2017-06-20T06:23:08.333Z,105
2017-06-20T06:24:17.603Z,140
2017-06-20T06:25:27.356Z,155
2017-06-20T06:26:36.345Z,115
2017-06-20T06:27:45.641Z,70
2017-06-20T06:28:54.604Z,55
2017-06-20T06:30:03.821Z,55
2017-06-20T06:31:12.791Z,55
2017-06-20T06:32:21.753Z,55
2017-06-20T06:33:30.716Z,50
2017-06-20T06:34:39.763Z,50
2017-06-20T06:35:48.968Z,50
2017-06-20T06:36:57.930Z,50
2017-06-20T06:38:06.898Z,50
2017-06-20T06:39:15.859Z,55
2017-06-20T06:40:24.835Z,55
2017-06-20T06:41:34.108Z,55
2017-06-20T06:42:43.157Z,55
2017-06-20T06:43:52.159Z,60
2017-06-20T06:45:01.122Z,60
2017-06-20T06:46:10.175Z,60
2017-06-20T06:47:19.434Z,65
2017-06-20T06:48:28.396Z,60
2017-06-20T06:49:37.362Z,60
2017-06-20T06:50:46.410Z,60
2017-06-20T06:51:55.370Z,55
2017-06-20T06:53:04.647Z,65
2017-06-20T06:54:13.615Z,65
2017-06-20T06:55:22.578Z,65
2017-06-20T06:56:31.891Z,65
2017-06-20T06:57:40.858Z,65
2017-06-20T06:58:50.106Z,65
2017-06-20T06:59:59.072Z,60
2017-06-20T07:01:08.037Z,70
2017-06-20T07:02:17.326Z,70
2017-06-20T07:03:26.285Z,70
2017-06-20T07:04:35.871Z,70
2017-06-20T07:05:44.837Z,65
2017-06-20T07:06:53.810Z,65
2017-06-20T07:08:02.861Z,60
2017-06-20T07:09:11.822Z,55
2017-06-20T07:10:21.126Z,60
2017-06-20T07:11:30.088Z,60
2017-06-20T07:12:39.057Z,65
2017-06-20T07:13:48.017Z,65
2017-06-20T07:14:56.985Z,65
2017-06-20T07:16:06.869Z,65
2017-06-20T07:17:16.454Z,65
2017-06-20T07:18:25.910Z,65
2017-06-20T07:19:36.490Z,65
2017-06-20T07:20:45.453Z,70
2017-06-20T07:21:54.671Z,70
2017-06-20T07:23:03.966Z,70
2017-06-20T07:24:12.931Z,75
2017-06-20T07:25:21.900Z,75
2017-06-20T07:26:30.867Z,75
2017-06-20T07:27:40.141Z,75
2017-06-20T07:28:49.111Z,70
2017-06-20T07:29:58.080Z,75
2017-06-20T07:31:07.045Z,75
2017-06-20T07:32:16.014Z,75
2017-06-20T07:33:25.283Z,75
2017-06-20T07:34:34.257Z,75
2017-06-20T07:35:43.738Z,75
2017-06-20T07:36:52.703Z,80
2017-06-20T07:38:01.668Z,80
2017-06-20T07:39:10.934Z,75
2017-06-20T07:40:19.897Z,80
2017-06-20T07:41:28.861Z,80
2017-06-20T07:42:38.149Z,80
2017-06-20T07:43:47.113Z,80
2017-06-20T07:44:56.397Z,80
2017-06-20T07:46:06.763Z,75
2017-06-20T07:47:16.055Z,80
2017-06-20T07:48:25.015Z,80
2017-06-20T07:49:33.983Z,85
2017-06-20T07:50:43.197Z,85
2017-06-20T07:51:52.303Z,90
2017-06-20T07:53:01.856Z,95
2017-06-20T07:54:10.823Z,90
2017-06-20T07:55:19.786Z,85
2017-06-20T07:56:29.204Z,85
2017-06-20T07:57:38.578Z,90
2017-06-20T07:58:47.573Z,90
2017-06-20T07:59:56.529Z,95
2017-06-20T08:01:05.492Z,100
2017-06-20T08:02:14.704Z,100
2017-06-20T08:03:23.668Z,105
2017-06-20T08:04:32.634Z,105
2017-06-20T08:05:41.703Z,105
2017-06-20T08:06:50.667Z,100
2017-06-20T08:07:59.929Z,100
2017-06-20T08:09:08.895Z,105
2017-06-20T08:10:17.858Z,105
2017-06-20T08:11:26.821Z,100
2017-06-20T08:12:35.791Z,105
2017-06-20T08:13:45.059Z,110
2017-06-20T08:14:54.028Z,105
2017-06-20T08:16:02.999Z,110
2017-06-20T08:17:11.965Z,110
2017-06-20T08:18:20.936Z,110
2017-06-20T08:19:30.150Z,110
2017-06-20T08:20:39.116Z,110
2017-06-20T08:21:48.083Z,115
2017-06-20T08:22:57.373Z,110
2017-06-20T08:24:06.337Z,110
2017-06-20T08:25:15.875Z,110
2017-06-20T08:26:24.842Z,110
2017-06-20T08:27:33.805Z,110
2017-06-20T08:28:42.855Z,115
2017-06-20T08:29:51.820Z,115
2017-06-20T08:31:01.121Z,120
2017-06-20T08:32:10.422Z,120
2017-06-20T08:33:19.385Z,125
2017-06-20T08:34:28.352Z,125
2017-06-20T08:35:37.319Z,120
2017-06-20T08:36:46.679Z,120
2017-06-20T08:37:55.981Z,125
2017-06-20T08:39:04.946Z,115
2017-06-20T08:40:14.236Z,120
2017-06-20T08:41:23.203Z,120
2017-06-20T08:42:32.493Z,115
2017-06-20T08:43:41.548Z,120
2017-06-20T08:44:50.520Z,115
2017-06-20T08:45:59.493Z,115
2017-06-20T08:47:08.461Z,110
2017-06-20T08:48:17.729Z,105
2017-06-20T08:49:26.692Z,115
2017-06-20T08:50:35.748Z,115
2017-06-20T08:51:44.718Z,120
2017-06-20T08:52:53.678Z,120
2017-06-20T08:54:02.947Z,125
2017-06-20T08:55:11.917Z,120
2017-06-20T08:56:20.878Z,125
2017-06-20T08:57:29.852Z,115
2017-06-20T08:58:38.830Z,115
2017-06-20T08:59:48.100Z,110
2017-06-20T09:00:57.393Z,115
2017-06-20T09:02:06.355Z,115
2017-06-20T09:03:15.316Z,115
2017-06-20T09:04:24.281Z,115
2017-06-20T09:05:33.547Z,120
2017-06-20T09:06:42.513Z,115
2017-06-20T09:07:51.474Z,125
2017-06-20T09:09:00.442Z,140
2017-06-20T09:10:09.407Z,115
2017-06-20T09:11:18.713Z,115
2017-06-20T09:12:27.678Z,115
2017-06-20T09:13:36.647Z,115
2017-06-20T09:14:46.025Z,115
2017-06-20T09:15:55.003Z,115
2017-06-20T09:17:04.221Z,110
2017-06-20T09:18:13.182Z,110
2017-06-20T09:19:22.147Z,110
2017-06-20T09:20:31.121Z,115
2017-06-20T09:21:40.088Z,120
2017-06-20T09:22:49.306Z,110
2017-06-20T09:23:58.272Z,110
2017-06-20T09:25:07.244Z,115
2017-06-20T09:26:16.210Z,115
2017-06-20T09:27:25.179Z,120
2017-06-20T09:28:34.448Z,115
2017-06-20T09:29:43.412Z,120
2017-06-20T09:30:52.382Z,120
2017-06-20T09:32:01.349Z,115
2017-06-20T09:33:10.315Z,105
2017-06-20T09:34:19.604Z,115
2017-06-20T09:35:28.566Z,115
2017-06-20T09:36:37.587Z,115
2017-06-20T09:37:46.553Z,120
2017-06-20T09:38:55.951Z,120
2017-06-20T09:40:05.171Z,115
2017-06-20T09:41:14.171Z,115
2017-06-20T09:42:23.133Z,115
2017-06-20T09:43:32.101Z,115
2017-06-20T09:44:41.071Z,120
2017-06-20T09:45:50.336Z,120
2017-06-20T09:46:59.302Z,120
2017-06-20T09:48:08.277Z,90
2017-06-20T09:49:17.243Z,100
2017-06-20T09:50:26.222Z,95
2017-06-20T09:51:35.440Z,100
2017-06-20T09:52:44.410Z,100
2017-06-20T09:53:53.434Z,100
2017-06-20T09:55:02.401Z,90
2017-06-20T09:56:11.365Z,105
2017-06-20T09:57:20.668Z,105
2017-06-20T09:58:29.718Z,105
2017-06-20T09:59:38.688Z,110
2017-06-20T10:00:48.367Z,75
2017-06-20T10:01:57.445Z,95
2017-06-20T10:03:06.667Z,110
2017-06-20T10:04:15.682Z,110
2017-06-20T10:05:24.704Z,95
2017-06-20T10:06:33.718Z,115
2017-06-20T10:07:42.803Z,110
2017-06-20T10:08:52.102Z,70
2017-06-20T10:10:01.310Z,75
2017-06-20T10:11:10.275Z,80
2017-06-20T10:12:19.238Z,95
2017-06-20T10:13:28.358Z,100
2017-06-20T10:14:37.582Z,95
2017-06-20T10:15:46.547Z,110
2017-06-20T10:16:55.517Z,110
2017-06-20T10:18:04.663Z,110
2017-06-20T10:19:13.633Z,100
2017-06-20T10:20:22.906Z,110
2017-06-20T10:21:31.870Z,70
2017-06-20T10:22:41.160Z,65
2017-06-20T10:23:50.126Z,45
2017-06-20T10:24:59.089Z,45
2017-06-20T10:26:08.311Z,45
2017-06-20T10:27:17.369Z,45
2017-06-20T10:28:26.357Z,50
2017-06-20T10:29:35.331Z,50
2017-06-20T10:30:44.396Z,45
2017-06-20T10:31:53.661Z,40
2017-06-20T10:33:02.629Z,50
2017-06-20T10:34:11.681Z,60
2017-06-20T10:35:20.648Z,65
2017-06-20T10:36:29.620Z,75
2017-06-20T10:37:39.143Z,90
2017-06-20T10:38:48.361Z,85
2017-06-20T10:39:57.546Z,85
2017-06-20T10:41:06.736Z,85
2017-06-20T10:42:15.701Z,90
2017-06-20T10:43:25.128Z,95
2017-06-20T10:44:34.400Z,100
2017-06-20T10:45:43.380Z,95
2017-06-20T10:46:52.433Z,105
2017-06-20T10:48:01.455Z,105
2017-06-20T10:49:10.943Z,120
2017-06-20T10:50:20.020Z,120
2017-06-20T10:51:29.148Z,70
2017-06-20T10:52:38.640Z,55
2017-06-20T10:53:47.723Z,70
2017-06-20T10:54:57.243Z,100
2017-06-20T10:56:06.423Z,95
2017-06-20T10:57:15.466Z,105
2017-06-20T10:58:24.524Z,110
2017-06-20T10:59:33.585Z,115
2017-06-20T11:00:42.803Z,105
2017-06-20T11:01:52.195Z,100
2017-06-20T11:03:01.380Z,65
2017-06-20T11:04:10.384Z,95
2017-06-20T11:05:19.418Z,95
2017-06-20T11:06:28.974Z,90
2017-06-20T11:07:37.945Z,95
2017-06-20T11:08:47.087Z,85
2017-06-20T11:09:56.245Z,55
2017-06-20T11:11:05.305Z,90
2017-06-20T11:12:14.628Z,95
2017-06-20T11:13:23.609Z,90
2017-06-20T11:14:32.944Z,95
2017-06-20T11:15:42.202Z,100
2017-06-20T11:16:51.393Z,100
2017-06-20T11:18:00.786Z,105
2017-06-20T11:19:09.839Z,95
2017-06-20T11:20:18.893Z,55
2017-06-20T11:21:27.866Z,50
2017-06-20T11:22:36.927Z,40
2017-06-20T11:23:46.191Z,40
2017-06-20T11:24:55.160Z,50
2017-06-20T11:26:04.126Z,70
2017-06-20T11:27:13.092Z,90
2017-06-20T11:28:22.057Z,95
2017-06-20T11:29:31.446Z,85
2017-06-20T11:30:40.412Z,80
2017-06-20T11:31:49.388Z,85
2017-06-20T11:32:58.358Z,90
2017-06-20T11:34:07.327Z,100
2017-06-20T11:35:16.590Z,95
2017-06-20T11:36:25.556Z,95
2017-06-20T11:37:34.523Z,90
2017-06-20T11:38:43.493Z,95
2017-06-20T11:39:52.460Z,95
2017-06-20T11:41:01.724Z,100
2017-06-20T11:42:10.689Z,90
2017-06-20T11:43:19.660Z,95
2017-06-20T11:44:28.704Z,105
2017-06-20T11:45:37.727Z,100
2017-06-20T11:46:47.045Z,95
2017-06-20T11:47:56.064Z,95
2017-06-20T11:49:05.247Z,100
2017-06-20T11:50:14.272Z,75
2017-06-20T11:51:23.368Z,65
2017-06-20T11:52:32.675Z,60
2017-06-20T11:53:41.854Z,55
2017-06-20T11:54:50.953Z,80
2017-06-20T11:55:59.980Z,80
2017-06-20T11:57:09.108Z,80
2017-06-20T11:58:18.494Z,80
2017-06-20T11:59:27.830Z,75
2017-06-20T12:00:36.798Z,65
2017-06-20T12:01:46.170Z,75
2017-06-20T12:02:55.183Z,80
2017-06-20T12:04:04.501Z,80
2017-06-20T12:05:13.573Z,80
2017-06-20T12:06:22.549Z,85
2017-06-20T12:07:31.607Z,60
2017-06-20T12:08:40.644Z,55
2017-06-20T12:09:50.074Z,55
2017-06-20T12:10:59.041Z,80
2017-06-20T12:12:08.007Z,80
2017-06-20T12:13:17.052Z,80
2017-06-20T12:14:26.190Z,80
2017-06-20T12:15:35.629Z,80
2017-06-20T12:16:44.723Z,80
2017-06-20T12:17:53.877Z,75
2017-06-20T12:19:02.847Z,70
2017-06-20T12:20:12.164Z,75
2017-06-20T12:21:21.714Z,80
2017-06-20T12:22:30.787Z,85
2017-06-20T12:23:39.869Z,95
2017-06-20T12:24:48.872Z,95
2017-06-20T12:25:57.979Z,95
2017-06-20T12:27:07.254Z,90
2017-06-20T12:28:16.222Z,80
2017-06-20T12:29:25.977Z,55
2017-06-20T12:30:35.107Z,80
2017-06-20T12:31:44.240Z,85
2017-06-20T12:32:53.817Z,90
2017-06-20T12:34:03.241Z,90
2017-06-20T12:35:12.402Z,85
2017-06-20T12:36:21.412Z,80
2017-06-20T12:37:30.486Z,80
2017-06-20T12:38:40.220Z,80
2017-06-20T12:39:49.736Z,80
2017-06-20T12:40:58.905Z,80
2017-06-20T12:42:08.056Z,70
2017-06-20T12:43:17.217Z,70
2017-06-20T12:44:26.512Z,55
2017-06-20T12:45:35.973Z,50
2017-06-20T12:46:45.383Z,80
2017-06-20T12:47:54.455Z,80
2017-06-20T12:49:03.581Z,85
2017-06-20T12:50:12.932Z,80
2017-06-20T12:51:21.898Z,80
2017-06-20T12:52:30.867Z,75
2017-06-20T12:53:40.943Z,70
2017-06-20T12:54:49.995Z,55
2017-06-20T12:55:59.380Z,75
2017-06-20T12:57:08.492Z,55
2017-06-20T12:58:17.619Z,70
2017-06-20T12:59:26.751Z,80
2017-06-20T13:00:35.893Z,80
2017-06-20T13:01:45.201Z,60
2017-06-20T13:02:54.403Z,55
2017-06-20T13:04:03.893Z,85
2017-06-20T13:05:13.024Z,85
2017-06-20T13:06:22.149Z,85
2017-06-20T13:07:31.367Z,90
2017-06-20T13:08:40.355Z,85
2017-06-20T13:09:49.949Z,85
2017-06-20T13:10:58.929Z,80
2017-06-20T13:12:08.280Z,80
2017-06-20T13:13:17.499Z,75
2017-06-20T13:14:26.627Z,75
2017-06-20T13:15:35.850Z,75
2017-06-20T13:16:45.044Z,75
2017-06-20T13:17:54.222Z,75
2017-06-20T13:19:03.906Z,85
2017-06-20T13:20:13.147Z,85
2017-06-20T13:21:22.284Z,80
2017-06-20T13:22:31.360Z,90
2017-06-20T13:23:40.573Z,85
2017-06-20T13:24:49.876Z,85
2017-06-20T13:25:58.917Z,75
2017-06-20T13:27:07.890Z,80
2017-06-20T13:28:17.129Z,80
2017-06-20T13:29:26.176Z,75
2017-06-20T13:30:35.545Z,70
2017-06-20T13:31:44.513Z,85
2017-06-20T13:32:53.768Z,90
2017-06-20T13:34:02.732Z,85
2017-06-20T13:35:11.695Z,80
2017-06-20T13:36:21.132Z,65
2017-06-20T13:37:30.101Z,70
2017-06-20T13:38:39.155Z,75
2017-06-20T13:39:48.478Z,50
2017-06-20T13:40:57.743Z,50
2017-06-20T13:42:07.009Z,55
2017-06-20T13:43:15.981Z,65
2017-06-20T13:44:25.178Z,60
2017-06-20T13:45:34.219Z,65
2017-06-20T13:46:43.270Z,65
2017-06-20T13:47:52.681Z,65
2017-06-20T13:49:01.650Z,65
2017-06-20T13:50:10.617Z,75
2017-06-20T13:51:19.579Z,75
2017-06-20T13:52:28.645Z,75
2017-06-20T13:53:37.862Z,75
2017-06-20T13:54:46.830Z,85
2017-06-20T13:55:55.792Z,90
2017-06-20T13:57:04.758Z,85
2017-06-20T13:58:13.723Z,75
2017-06-20T13:59:23.265Z,75
2017-06-20T14:00:32.242Z,75
2017-06-20T14:01:41.217Z,70
2017-06-20T14:02:50.337Z,70
2017-06-20T14:03:59.305Z,75
2017-06-20T14:05:08.711Z,75
2017-06-20T14:06:17.800Z,75
2017-06-20T14:07:26.901Z,75
2017-06-20T14:08:36.185Z,75
2017-06-20T14:09:45.631Z,80
2017-06-20T14:10:54.855Z,90
2017-06-20T14:12:03.995Z,85
2017-06-20T14:13:13.047Z,85
2017-06-20T14:14:22.035Z,85
2017-06-20T14:15:31.258Z,80
2017-06-20T14:16:40.548Z,75
2017-06-20T14:17:49.549Z,75
2017-06-20T14:18:58.515Z,75
2017-06-20T14:20:07.499Z,75
2017-06-20T14:21:16.557Z,75
2017-06-20T14:22:25.785Z,75
2017-06-20T14:23:34.752Z,70
2017-06-20T14:24:43.719Z,75
2017-06-20T14:25:52.710Z,75
2017-06-20T14:27:01.684Z,75
2017-06-20T14:28:10.955Z,80
2017-06-20T14:29:19.922Z,75
2017-06-20T14:30:28.888Z,70
2017-06-20T14:31:37.852Z,70
2017-06-20T14:32:46.817Z,70
2017-06-20T14:33:56.086Z,70
2017-06-20T14:35:05.051Z,70
2017-06-20T14:36:14.021Z,70
2017-06-20T14:37:22.990Z,70
2017-06-20T14:38:32.286Z,70
2017-06-20T14:39:41.506Z,70
2017-06-20T14:40:50.561Z,65
2017-06-20T14:41:59.531Z,65
2017-06-20T14:43:08.498Z,65
2017-06-20T14:44:17.456Z,65
2017-06-20T14:45:26.669Z,60
2017-06-20T14:46:35.631Z,65
2017-06-20T14:47:44.895Z,65
2017-06-20T14:48:53.907Z,65
2017-06-20T14:50:02.875Z,65
2017-06-20T14:51:12.153Z,65
2017-06-20T14:52:21.530Z,65
2017-06-20T14:53:30.493Z,70
2017-06-20T14:54:39.458Z,70
2017-06-20T14:55:48.745Z,65
2017-06-20T14:56:58.014Z,70
2017-06-20T14:58:06.979Z,70
2017-06-20T14:59:15.949Z,60
2017-06-20T15:00:24.908Z,55
2017-06-20T15:01:33.964Z,65
2017-06-20T15:02:43.229Z,60
2017-06-20T15:03:52.196Z,60
2017-06-20T15:05:01.159Z,55
2017-06-20T15:06:10.123Z,55
2017-06-20T15:07:19.096Z,60
2017-06-20T15:08:28.357Z,55
2017-06-20T15:09:37.327Z,60
2017-06-20T15:10:46.297Z,60
2017-06-20T15:11:55.263Z,65
2017-06-20T15:13:04.228Z,60
2017-06-20T15:14:13.446Z,60
2017-06-20T15:15:22.416Z,60
2017-06-20T15:16:31.474Z,55
2017-06-20T15:17:40.436Z,50
2017-06-20T15:18:49.404Z,50
2017-06-20T15:19:58.671Z,50
2017-06-20T15:21:07.640Z,50
2017-06-20T15:22:16.613Z,50
2017-06-20T15:23:25.907Z,50
2017-06-20T15:24:34.871Z,55
2017-06-20T15:25:44.088Z,55
2017-06-20T15:26:53.054Z,60
2017-06-20T15:28:02.019Z,60
2017-06-20T15:29:10.990Z,55
2017-06-20T15:30:19.956Z,55
2017-06-20T15:31:29.169Z,50
2017-06-20T15:32:38.128Z,50
2017-06-20T15:33:47.099Z,50
2017-06-20T15:34:56.065Z,50
2017-06-20T15:36:05.034Z,50
2017-06-20T15:37:14.249Z,55
2017-06-20T15:38:23.211Z,55
2017-06-20T15:39:32.171Z,60
2017-06-20T15:40:41.132Z,65
2017-06-20T15:41:50.096Z,65
2017-06-20T15:42:59.310Z,60
2017-06-20T15:44:08.269Z,60
2017-06-20T15:45:17.237Z,60
2017-06-20T15:46:26.839Z,55
2017-06-20T15:47:35.802Z,50
2017-06-20T15:48:45.068Z,55
2017-06-20T15:49:54.031Z,45
2017-06-20T15:51:02.994Z,40
2017-06-20T15:52:11.961Z,40
2017-06-20T15:53:20.922Z,40
2017-06-20T15:54:30.194Z,40
2017-06-20T15:55:39.157Z,45
2017-06-20T15:56:52.330Z,50
2017-06-20T15:58:01.995Z,40
2017-06-20T15:59:10.988Z,40
2017-06-20T16:00:20.295Z,40
2017-06-20T16:01:29.277Z,40
2017-06-20T16:02:38.252Z,40
2017-06-20T16:03:47.217Z,40
2017-06-20T16:04:56.198Z,40
2017-06-20T16:06:05.753Z,40
2017-06-20T16:07:14.720Z,40
2017-06-20T16:08:23.690Z,40
2017-06-20T16:09:32.653Z,40
2017-06-20T16:10:41.615Z,40
2017-06-20T16:11:50.878Z,40
2017-06-20T16:12:59.927Z,40
2017-06-20T16:14:08.893Z,40
2017-06-20T16:15:17.855Z,40
2017-06-20T16:16:26.826Z,40
2017-06-20T16:17:36.092Z,40
2017-06-20T16:18:45.091Z,40
2017-06-20T16:19:54.082Z,40
2017-06-20T16:21:03.055Z,40
2017-06-20T16:22:12.019Z,45
2017-06-20T16:23:21.239Z,40
2017-06-20T16:24:30.247Z,40
2017-06-20T16:25:39.213Z,40
2017-06-20T16:26:48.320Z,40
2017-06-20T16:27:57.287Z,40